Flight Track Log - Related Links

Times and Time Zones

All times are in EDT time to prevent confusion due to time zone crossing. See the N40GB flight status page for this flight to view local times or setup timezone preferences in your user account.

Time Position Orientation Groundspeed Altitude Reporting Facility
EDT Latitude Longitude Course Direction KTS MPH feet Rate Location/Type
Wed 04:26:08 PM 46.8442 -92.3517 271° West 118 136 3,700  Level Minneapolis Center
Wed 04:27:10 PM 46.8464 -92.4025 274° West 120 138 4,200 532 Climbing Minneapolis Center
Wed 04:28:12 PM 46.8472 -92.4553 271° West 124 143 4,800 581 Climbing Minneapolis Center
Wed 04:29:00 PM 46.8507 -92.6046 273° West  Level FlightAware Approximate
Wed 04:29:14 PM 46.8489 -92.5094 273° West 129 148 5,400  Level Minneapolis Center
Wed 04:30:00 PM 46.8531 -92.6750 273° West  Level FlightAware Approximate
Wed 04:30:17 PM 46.8511 -92.5747 273° West 132 152 6,200  Level Minneapolis Center
Wed 04:31:19 PM 46.8533 -92.6289 273° West 133 153 6,800 629 Climbing Minneapolis Center
Wed 04:32:21 PM 46.8550 -92.6831 273° West 134 154 7,500 581 Climbing Minneapolis Center
Wed 04:33:23 PM 46.8561 -92.7342 272° West 131 151 8,000 242 Climbing Minneapolis Center
Wed 04:34:25 PM 46.8594 -92.7950 275° West 137 158 8,000  Level Minneapolis Center
Wed 04:35:27 PM 46.8617 -92.8667 273° West 155 178 8,000  Level Minneapolis Center
Wed 04:36:29 PM 46.8639 -92.9547 272° West 170 196 8,000  Level Minneapolis Center
Wed 04:37:31 PM 46.8661 -93.0267 273° West 175 201 8,000  Level Minneapolis Center
Wed 04:38:33 PM 46.8683 -93.0958 273° West 174 200 8,000  Level Minneapolis Center
Wed 04:39:35 PM 46.8697 -93.1633 272° West 171 197 8,000  Level Minneapolis Center
Wed 04:40:37 PM 46.8719 -93.2319 273° West 169 194 8,000 -48 Level Minneapolis Center
Wed 04:41:40 PM 46.8742 -93.3003 273° West 169 194 7,900  Descending Minneapolis Center
Wed 04:42:42 PM 46.8764 -93.3822 272° West 168 193 8,000 32 Climbing Minneapolis Center
Wed 04:44:00 PM 46.8787 -93.4688 272° West  Level FlightAware Approximate
Wed 04:44:46 PM 46.8800 -93.5203 272° West 170 196 8,000  Level Minneapolis Center
Wed 04:45:48 PM 46.8814 -93.5917 272° West 172 198 8,000  Level Minneapolis Center
Wed 04:46:50 PM 46.8836 -93.6625 273° West 174 200 8,000  Level Minneapolis Center
Wed 04:47:52 PM 46.8853 -93.7347 272° West 176 203 8,000  Level Minneapolis Center
Wed 04:48:54 PM 46.8878 -93.8225 272° West 178 205 8,000  Level Minneapolis Center
Wed 04:49:56 PM 46.8889 -93.8967 271° West 180 207 8,000  Level Minneapolis Center
Wed 04:50:58 PM 46.8906 -93.9714 272° West 182 209 8,000  Level Minneapolis Center
Wed 04:52:00 PM 46.8922 -94.0458 272° West 183 211 8,000  Level Minneapolis Center
Wed 04:53:02 PM 46.8942 -94.1208 272° West 184 212 8,000  Level Minneapolis Center
Wed 04:54:05 PM 46.8956 -94.1950 272° West 184 212 8,000  Level Minneapolis Center
Wed 04:55:07 PM 46.8972 -94.2836 272° West 183 211 8,000  Level Minneapolis Center
Wed 04:56:09 PM 46.8992 -94.3583 272° West 183 211 8,000  Level Minneapolis Center
Wed 04:57:11 PM 46.9006 -94.4311 272° West 182 209 8,000  Level Minneapolis Center
Wed 04:58:13 PM 46.9008 -94.5033 270° West 180 207 8,000  Level Minneapolis Center
Wed 04:59:15 PM 46.9028 -94.5781 272° West 181 208 8,000  Level Minneapolis Center
Wed 05:00:17 PM 46.9025 -94.6533 270° West 184 212 8,000  Level Minneapolis Center
Wed 05:01:19 PM 46.9064 -94.7444 274° West 186 214 8,000  Level Minneapolis Center
Wed 05:02:21 PM 46.9064 -94.8178 270° West 184 212 8,000  Level Minneapolis Center
Wed 05:03:23 PM 46.9075 -94.8919 271° West 183 211 8,000  Level Minneapolis Center
Wed 05:04:38 PM 46.9089 -94.9836 271° West 185 213 8,000  Level Minneapolis Center
Wed 05:05:40 PM 46.9108 -95.0594 272° West 187 215 8,000  Level Minneapolis Center
Wed 05:06:42 PM 46.9114 -95.1336 271° West 185 213 8,000  Level Minneapolis Center
Wed 05:07:44 PM 46.9100 -95.2217 269° West 182 209 8,000  Level Minneapolis Center
Wed 05:08:46 PM 46.8964 -95.2958 255° West 185 213 8,000  Level Minneapolis Center
Wed 05:09:48 PM 46.8842 -95.3706 257° West 189 217 8,000  Level Minneapolis Center
Wed 05:10:50 PM 46.8700 -95.4436 254° West 188 216 8,000  Level Minneapolis Center
Wed 05:11:52 PM 46.8561 -95.5250 256° West 180 207 8,000  Level Minneapolis Center
Wed 05:12:54 PM 46.8406 -95.6028 254° West 190 219 8,000  Level Minneapolis Center
Wed 05:13:57 PM 46.8244 -95.6794 253° West 188 216 8,000  Level Minneapolis Center
Wed 05:14:59 PM 46.8092 -95.7567 254° West 190 219 8,000  Level Minneapolis Center
Wed 05:16:01 PM 46.7978 -95.8286 257° West 189 217 8,000  Level Minneapolis Center
Wed 05:17:03 PM 46.7811 -95.9044 252° West 187 215 8,000  Level Minneapolis Center
Wed 05:18:05 PM 46.7572 -95.9781 245° Southwest 191 220 8,000 -48 Level Minneapolis Center
Wed 05:19:07 PM 46.7356 -96.0531 247° West 193 222 7,900 -435 Descending Minneapolis Center
Wed 05:20:09 PM 46.7431 -96.1364 278° West 205 236 7,100 -919 Descending Minneapolis Center
Wed 05:21:11 PM 46.7644 -96.2169 291° West 206 237 6,000 -968 Descending Minneapolis Center
Wed 05:22:13 PM 46.7817 -96.2908 289° West 200 230 5,100 -838 Descending Minneapolis Center
Wed 05:23:27 PM 46.7989 -96.3692 288° West 196 226 4,100 -529 Descending Minneapolis Center
Wed 05:24:29 PM 46.8233 -96.4550 293° West 179 206 3,900 -194 Descending Minneapolis Center
Wed 05:25:31 PM 46.8444 -96.5153 297° West 163 188 3,700 -265 Descending Minneapolis Center
Wed 05:26:45 PM 46.8578 -96.5756 288° West 163 188 3,300 -307 Descending Minneapolis Center
Wed 05:27:48 PM 46.8733 -96.6589 285° West 166 191 3,000 -240 Descending Minneapolis Center
Wed 05:28:50 PM 46.8783 -96.7161 277° West 141 162 2,800 -353 Descending Minneapolis Center
Wed 05:30:04 PM 46.8819 -96.7658 276° West 130 150 2,200 -662 Descending Minneapolis Center
Wed 05:31:06 PM 46.8933 -96.8144 289° West 104 120 1,300 -871 Descending Minneapolis Center

Login

Don't have an account? Register now (free) for customized features, flight alerts, and more!